createdAt,value
2018-06-27T02:53:01.934Z,12.38
2018-06-27T02:56:44.131Z,12.27
2018-06-27T04:12:05.810Z,12.02
2018-06-27T04:56:36.526Z,12.44
2018-06-27T05:30:33.679Z,13.60
2018-06-27T06:34:49.229Z,15.74
2018-06-27T07:07:21.021Z,15.89
2018-06-27T07:10:25.777Z,16.11
2018-06-27T07:12:57.261Z,16.32
2018-06-27T07:26:44.179Z,16.68
2018-06-27T07:33:28.404Z,16.39
2018-06-27T07:36:07.307Z,16.50
2018-06-27T07:39:21.297Z,16.50
2018-06-27T07:41:51.460Z,16.76
2018-06-27T07:44:57.376Z,17.06
2018-06-27T07:47:28.151Z,17.19
2018-06-27T07:50:03.500Z,17.12
2018-06-27T07:52:43.135Z,17.01
2018-06-27T07:55:15.382Z,16.86
2018-06-27T08:02:08.494Z,17.32
2018-06-27T08:05:57.806Z,17.42
2018-06-27T08:08:28.749Z,17.38
2018-06-27T08:10:58.803Z,17.41
2018-06-27T08:13:30.414Z,17.34
2018-06-27T08:16:04.457Z,17.19
2018-06-27T08:18:49.102Z,17.25
2018-06-27T08:21:34.328Z,17.49
2018-06-27T08:24:04.004Z,17.74
2018-06-27T08:26:48.424Z,17.83
2018-06-27T08:33:20.285Z,17.98
2018-06-27T08:35:56.693Z,17.81
2018-06-27T08:38:30.480Z,17.84
2018-06-27T08:41:15.972Z,18.01
2018-06-27T08:43:50.542Z,18.04
2018-06-27T08:46:19.433Z,18.45
2018-06-27T08:51:36.524Z,18.64
2018-06-27T08:54:06.611Z,18.83
2018-06-27T08:56:35.296Z,19.06
2018-06-27T08:59:06.024Z,19.27
2018-06-27T09:01:34.685Z,19.39
2018-06-27T09:04:03.421Z,19.40
2018-06-27T09:06:32.303Z,19.38
2018-06-27T09:09:02.115Z,19.48
2018-06-27T09:11:33.063Z,19.54
2018-06-27T09:14:02.861Z,19.76
2018-06-27T09:16:31.595Z,19.89
2018-06-27T09:19:00.478Z,19.85
2018-06-27T09:21:31.153Z,20.03
2018-06-27T09:23:59.853Z,19.93
2018-06-27T09:26:28.541Z,19.99
2018-06-27T09:28:57.213Z,20.05
2018-06-27T09:31:25.904Z,20.01
2018-06-27T09:33:55.831Z,20.13
2018-06-27T09:36:37.614Z,20.15
2018-06-27T09:39:09.441Z,20.20
2018-06-27T09:41:39.355Z,20.14
2018-06-27T09:44:16.964Z,20.16
2018-06-27T09:46:45.860Z,20.22
2018-06-27T09:49:14.649Z,20.20
2018-06-27T09:51:43.281Z,20.06
2018-06-27T09:54:12.028Z,19.96
2018-06-27T09:56:43.788Z,19.81
2018-06-27T09:59:13.628Z,19.72
2018-06-27T10:01:43.739Z,19.59
2018-06-27T10:04:12.667Z,19.39
2018-06-27T10:06:41.684Z,19.29
2018-06-27T10:09:12.889Z,19.34
2018-06-27T10:11:41.973Z,19.44
2018-06-27T10:14:10.909Z,19.61
2018-06-27T10:16:43.531Z,19.53
2018-06-27T10:19:13.340Z,19.56
2018-06-27T10:21:47.069Z,19.57
2018-06-27T10:24:16.102Z,19.43
2018-06-27T10:26:49.442Z,19.52
2018-06-27T10:29:20.432Z,19.57
2018-06-27T10:31:49.521Z,19.57
2018-06-27T10:34:18.640Z,19.57
2018-06-27T10:36:48.512Z,19.62
2018-06-27T10:39:19.428Z,19.75
2018-06-27T10:41:48.610Z,19.78
2018-06-27T10:44:17.647Z,19.98
2018-06-27T10:46:47.898Z,20.26
2018-06-27T10:49:17.059Z,20.38
2018-06-27T10:51:46.069Z,20.40
2018-06-27T10:54:15.179Z,20.55
2018-06-27T10:56:49.961Z,20.61
2018-06-27T10:59:20.108Z,20.50
2018-06-27T11:01:50.722Z,20.36
2018-06-27T11:04:19.715Z,20.19
2018-06-27T11:06:53.933Z,20.27
2018-06-27T11:12:55.462Z,20.49
2018-06-27T11:15:25.799Z,20.51
2018-06-27T11:17:54.947Z,20.47
2018-06-27T11:20:32.323Z,20.57
2018-06-27T11:25:50.166Z,20.67
2018-06-27T11:28:24.107Z,20.84
2018-06-27T11:31:51.280Z,20.87
2018-06-27T11:34:20.762Z,20.92
2018-06-27T11:37:03.712Z,20.73
2018-06-27T11:40:07.783Z,20.68
2018-06-27T11:42:36.843Z,20.74
2018-06-27T11:45:06.522Z,20.82
2018-06-27T11:47:37.359Z,20.63
2018-06-27T11:53:21.686Z,20.58
2018-06-27T11:55:51.704Z,20.65
2018-06-27T11:58:49.143Z,20.54
2018-06-27T12:06:42.141Z,20.32
2018-06-27T12:09:34.725Z,20.23
2018-06-27T12:12:10.211Z,20.25
2018-06-27T12:14:39.242Z,20.37
2018-06-27T12:17:08.419Z,20.96
2018-06-27T12:19:37.535Z,21.34
2018-06-27T12:22:06.715Z,21.65
2018-06-27T12:24:35.837Z,22.07
2018-06-27T12:27:04.895Z,22.29
2018-06-27T12:29:34.185Z,22.41
2018-06-27T12:32:03.396Z,22.47
2018-06-27T12:34:35.458Z,22.45
2018-06-27T12:37:04.450Z,22.10
2018-06-27T12:39:33.340Z,22.16
2018-06-27T12:42:02.223Z,22.19
2018-06-27T12:44:41.004Z,22.27
2018-06-27T12:47:09.708Z,22.44
2018-06-27T12:49:40.823Z,22.65
2018-06-27T12:52:09.517Z,22.82
2018-06-27T12:54:38.252Z,22.99
2018-06-27T12:57:07.445Z,22.77
2018-06-27T12:59:36.562Z,22.58
2018-06-27T13:02:05.663Z,22.48
2018-06-27T13:04:35.987Z,22.33
2018-06-27T13:07:05.003Z,22.43
2018-06-27T13:09:34.045Z,22.09
2018-06-27T13:12:03.486Z,21.85
2018-06-27T13:14:32.725Z,21.78
2018-06-27T13:17:03.118Z,21.76
2018-06-27T13:19:33.115Z,21.78
2018-06-27T13:22:02.273Z,22.10
2018-06-27T13:24:34.893Z,22.30
2018-06-27T13:27:25.455Z,22.50
2018-06-27T13:29:54.495Z,22.44
2018-06-27T13:32:23.695Z,22.58
2018-06-27T13:34:52.657Z,22.70
2018-06-27T13:37:21.513Z,22.64
2018-06-27T13:39:50.300Z,22.56
2018-06-27T13:42:19.053Z,22.44
2018-06-27T13:44:48.088Z,22.24
2018-06-27T13:47:18.441Z,21.98
2018-06-27T13:49:48.506Z,21.73
2018-06-27T13:52:23.904Z,21.61
2018-06-27T13:54:57.185Z,21.36
2018-06-27T13:57:27.478Z,21.04
2018-06-27T13:59:58.463Z,20.79
2018-06-27T14:02:27.296Z,20.66
2018-06-27T14:04:56.329Z,20.62
2018-06-27T14:07:25.497Z,20.63
2018-06-27T14:09:55.147Z,20.72
2018-06-27T14:12:24.954Z,20.61
2018-06-27T14:14:58.472Z,20.58
2018-06-27T14:17:30.221Z,20.60
2018-06-27T14:19:59.215Z,20.91
2018-06-27T14:22:31.203Z,21.27
2018-06-27T14:25:00.241Z,21.59
2018-06-27T14:27:31.246Z,22.08
2018-06-27T14:30:00.295Z,22.25
2018-06-27T14:32:29.090Z,22.35
2018-06-27T14:34:59.714Z,22.32
2018-06-27T14:37:28.817Z,22.24
2018-06-27T14:39:57.807Z,22.26
2018-06-27T14:42:26.839Z,22.32
2018-06-27T14:44:55.745Z,22.42
2018-06-27T14:47:24.660Z,22.46
2018-06-27T14:49:53.861Z,22.47
2018-06-27T14:52:23.011Z,22.38
2018-06-27T14:54:52.174Z,22.35
2018-06-27T14:57:21.214Z,22.22
2018-06-27T14:59:50.217Z,22.01
2018-06-27T15:02:19.262Z,21.89
2018-06-27T15:04:48.078Z,21.97
2018-06-27T15:07:16.907Z,22.28
2018-06-27T15:09:45.585Z,22.58
2018-06-27T15:12:14.306Z,22.85
2018-06-27T15:14:43.220Z,22.62
2018-06-27T15:17:13.771Z,22.65
2018-06-27T15:19:50.169Z,22.60
2018-06-27T15:22:19.366Z,22.68
2018-06-27T15:24:48.305Z,22.82
2018-06-27T15:27:18.006Z,22.57
2018-06-27T15:29:47.011Z,22.27
2018-06-27T15:32:16.054Z,22.10
2018-06-27T15:34:45.047Z,21.87
2018-06-27T15:37:14.539Z,21.42
2018-06-27T15:39:46.142Z,21.28
2018-06-27T15:42:15.059Z,21.17
2018-06-27T15:44:44.716Z,21.02
2018-06-27T15:47:18.593Z,20.95
2018-06-27T15:49:47.599Z,21.02
2018-06-27T15:52:16.871Z,21.09
2018-06-27T15:54:46.835Z,21.07
2018-06-27T15:57:16.949Z,20.93
2018-06-27T15:59:51.750Z,20.79
2018-06-27T16:02:20.655Z,20.87
2018-06-27T16:04:49.655Z,20.86
2018-06-27T16:07:19.256Z,21.00
2018-06-27T16:09:49.578Z,20.89
2018-06-27T16:12:21.434Z,20.89
2018-06-27T16:14:50.484Z,20.88
2018-06-27T16:17:25.537Z,20.66
2018-06-27T16:19:54.130Z,20.55
2018-06-27T16:22:23.028Z,20.57
2018-06-27T16:24:52.593Z,20.96
2018-06-27T16:30:11.766Z,21.52
2018-06-27T16:32:40.501Z,21.59
2018-06-27T16:35:10.130Z,21.44
2018-06-27T16:37:46.121Z,21.44
2018-06-27T16:40:16.177Z,21.43
2018-06-27T16:42:45.182Z,21.49
2018-06-27T16:45:17.912Z,21.46
2018-06-27T16:47:47.124Z,21.38
2018-06-27T16:50:16.144Z,21.31
2018-06-27T16:52:45.202Z,21.14
2018-06-27T16:55:15.334Z,20.91
2018-06-27T16:57:44.413Z,20.82
2018-06-27T17:00:13.432Z,20.83
2018-06-27T17:02:42.199Z,20.90
2018-06-27T17:05:17.581Z,20.86
2018-06-27T17:07:46.344Z,20.73
2018-06-27T17:10:15.068Z,20.69
2018-06-27T17:12:44.638Z,20.68
2018-06-27T17:15:19.460Z,20.87
2018-06-27T17:17:54.783Z,20.27
2018-06-27T17:20:23.986Z,19.83
2018-06-27T17:22:53.136Z,19.67
2018-06-27T17:26:11.549Z,19.58
2018-06-27T17:28:43.709Z,19.37
2018-06-27T17:31:14.094Z,19.14
2018-06-27T17:33:43.275Z,18.93
2018-06-27T17:36:12.183Z,18.61
2018-06-27T17:38:41.077Z,18.44
2018-06-27T17:41:09.961Z,18.09
2018-06-27T17:43:38.643Z,17.88
2018-06-27T17:46:07.374Z,17.70
2018-06-27T17:48:36.222Z,17.66
2018-06-27T17:51:05.363Z,17.64
2018-06-27T17:53:34.476Z,17.55
2018-06-27T17:56:29.199Z,17.28
2018-06-27T17:59:30.042Z,17.11
2018-06-27T18:02:04.775Z,17.07
2018-06-27T18:04:34.607Z,17.06
2018-06-27T18:07:05.101Z,17.01
2018-06-27T18:09:35.594Z,16.84
2018-06-27T18:12:05.038Z,16.74
2018-06-27T18:17:13.288Z,16.62
2018-06-27T18:19:45.714Z,16.59
2018-06-27T18:22:20.328Z,16.65
2018-06-27T18:24:50.012Z,16.78
2018-06-27T18:27:20.225Z,16.60
2018-06-27T18:30:02.615Z,16.40
2018-06-27T18:33:11.435Z,16.43
2018-06-27T18:35:53.976Z,16.36
2018-06-27T18:39:24.585Z,16.30
2018-06-27T18:41:56.385Z,16.25
2018-06-27T18:44:43.305Z,16.35
2018-06-27T18:47:23.217Z,16.36
2018-06-27T18:50:07.387Z,16.28
2018-06-27T18:52:36.764Z,16.16
2018-06-27T18:55:15.825Z,16.02
2018-06-27T18:58:04.630Z,15.92
2018-06-27T19:00:39.670Z,15.89
2018-06-27T20:45:41.466Z,16.38
2018-06-27T22:55:14.871Z,14.99
2018-06-27T23:02:57.063Z,14.81
2018-06-27T23:08:31.967Z,14.53
2018-06-27T23:11:17.412Z,14.63
2018-06-27T23:13:52.954Z,14.60
2018-06-27T23:16:26.522Z,14.57
2018-06-27T23:22:27.937Z,14.67
2018-06-27T23:25:02.585Z,14.55
2018-06-27T23:27:33.757Z,14.53
2018-06-27T23:37:35.024Z,14.41
2018-06-27T23:43:30.242Z,14.24
